Time;durP1;ratioP1;P1;durP2;ratioP2;P2;SDS_P1;SDS_P2;PMS_P1;PMS_P2;Temp;Humidity;BMP_temperature;BMP_pressure;BME280_temperature;BME280_humidity;BME280_pressure;Samples;Min_cycle;Max_cycle;Signal;HPM_P1;HPM_P2
2023/11/15 00:00:50;;;;;;;1.93;1.00;;;;;;;;;;5021276;28;20291;-66
2023/11/15 00:03:19;;;;;;;2.80;0.90;;;;;;;;;;5024226;28;20206;-66
2023/11/15 00:05:48;;;;;;;3.00;1.00;;;;;;;;;;5028323;28;20572;-66
2023/11/15 00:08:17;;;;;;;3.73;0.93;;;;;;;;;;5022556;28;20754;-66
2023/11/15 00:10:45;;;;;;;1.40;0.83;;;;;;;;;;5019143;28;20213;-66
2023/11/15 00:13:14;;;;;;;4.00;1.73;;;;;;;;;;5019499;28;20231;-66
2023/11/15 00:15:42;;;;;;;5.37;1.20;;;;;;;;;;5019432;28;20240;-66
2023/11/15 00:18:13;;;;;;;3.93;1.00;;;;;;;;;;5019231;28;20204;-65
2023/11/15 00:20:43;;;;;;;2.40;1.30;;;;;;;;;;5019009;28;20660;-65
2023/11/15 00:23:12;;;;;;;5.00;1.20;;;;;;;;;;5019439;28;20211;-66
2023/11/15 00:25:40;;;;;;;6.17;1.23;;;;;;;;;;5019228;28;20240;-66
2023/11/15 00:28:09;;;;;;;2.83;0.90;;;;;;;;;;5018554;28;20259;-65
2023/11/15 00:30:37;;;;;;;0.90;0.90;;;;;;;;;;5018374;28;20687;-66
2023/11/15 00:33:05;;;;;;;1.27;1.00;;;;;;;;;;5017814;28;20655;-65
2023/11/15 00:35:35;;;;;;;4.07;1.30;;;;;;;;;;5037283;28;20658;-65
2023/11/15 00:38:04;;;;;;;6.87;1.30;;;;;;;;;;5030795;28;20224;-65
2023/11/15 00:40:33;;;;;;;3.20;1.20;;;;;;;;;;5023337;28;20228;-65
2023/11/15 00:43:03;;;;;;;4.43;1.20;;;;;;;;;;5034442;28;20230;-64
2023/11/15 00:45:31;;;;;;;2.33;0.97;;;;;;;;;;5037643;28;20227;-64
2023/11/15 00:48:00;;;;;;;6.73;1.50;;;;;;;;;;5037671;28;20231;-64
2023/11/15 00:50:28;;;;;;;3.57;1.30;;;;;;;;;;5018489;28;20648;-64
2023/11/15 00:52:58;;;;;;;2.57;1.10;;;;;;;;;;5018518;28;20247;-67
2023/11/15 00:55:27;;;;;;;1.87;1.07;;;;;;;;;;5019487;28;20239;-65
2023/11/15 00:57:55;;;;;;;2.70;1.30;;;;;;;;;;5020933;28;20689;-66
2023/11/15 01:00:25;;;;;;;5.00;2.17;;;;;;;;;;5020423;28;20200;-67
2023/11/15 01:02:55;;;;;;;4.50;1.33;;;;;;;;;;5037256;28;20227;-66
2023/11/15 01:05:24;;;;;;;1.93;1.20;;;;;;;;;;5027906;28;20200;-66
2023/11/15 01:07:52;;;;;;;5.33;1.57;;;;;;;;;;5038071;28;20231;-67
2023/11/15 01:10:24;;;;;;;3.50;1.23;;;;;;;;;;5033780;28;20253;-67
2023/11/15 01:12:54;;;;;;;3.37;1.30;;;;;;;;;;5018292;28;20235;-66
2023/11/15 01:15:22;;;;;;;3.70;1.43;;;;;;;;;;5021985;28;20213;-66
2023/11/15 01:17:51;;;;;;;5.43;1.60;;;;;;;;;;5036934;28;20203;-67
2023/11/15 01:20:19;;;;;;;1.93;1.33;;;;;;;;;;5036653;28;20651;-65
2023/11/15 01:22:48;;;;;;;3.30;1.47;;;;;;;;;;5037111;28;20239;-67
2023/11/15 01:25:16;;;;;;;6.23;1.73;;;;;;;;;;5035871;28;20199;-67
2023/11/15 01:27:46;;;;;;;4.87;1.10;;;;;;;;;;5035368;28;20227;-66
2023/11/15 01:30:15;;;;;;;2.57;1.20;;;;;;;;;;5035926;28;20291;-66
2023/11/15 01:32:43;;;;;;;6.90;1.27;;;;;;;;;;5036766;28;20224;-64
2023/11/15 01:35:11;;;;;;;6.37;1.43;;;;;;;;;;5036486;28;20545;-64
2023/11/15 01:37:40;;;;;;;2.80;1.27;;;;;;;;;;5026211;28;20324;-65
2023/11/15 01:40:09;;;;;;;3.30;1.20;;;;;;;;;;5016789;28;20206;-64
2023/11/15 01:42:38;;;;;;;5.00;1.20;;;;;;;;;;5017719;28;20251;-65
2023/11/15 01:45:09;;;;;;;3.73;1.50;;;;;;;;;;5017346;28;20254;-64
2023/11/15 01:47:38;;;;;;;4.87;1.07;;;;;;;;;;5037554;28;20285;-65
2023/11/15 01:50:10;;;;;;;2.90;1.37;;;;;;;;;;5034216;28;20203;-64
2023/11/15 01:52:38;;;;;;;4.07;1.03;;;;;;;;;;5017138;28;20729;-65
2023/11/15 01:55:08;;;;;;;9.23;1.53;;;;;;;;;;5035023;28;20207;-64
2023/11/15 01:57:37;;;;;;;3.23;1.17;;;;;;;;;;5021967;28;20204;-64
2023/11/15 02:00:08;;;;;;;2.27;1.13;;;;;;;;;;5020784;28;20235;-65
2023/11/15 02:02:38;;;;;;;3.63;1.00;;;;;;;;;;5016881;28;20720;-64
2023/11/15 02:05:08;;;;;;;5.07;1.40;;;;;;;;;;5017925;28;20215;-64
2023/11/15 02:07:37;;;;;;;4.03;1.40;;;;;;;;;;5021103;28;20243;-64
2023/11/15 02:10:06;;;;;;;3.47;1.10;;;;;;;;;;5021597;28;20553;-65
2023/11/15 02:12:35;;;;;;;2.77;0.83;;;;;;;;;;5021427;28;20228;-65
2023/11/15 02:15:04;;;;;;;4.53;1.63;;;;;;;;;;5025518;28;20294;-65
2023/11/15 02:17:32;;;;;;;4.10;1.70;;;;;;;;;;5021984;28;20211;-65
2023/11/15 02:20:06;;;;;;;3.13;1.13;;;;;;;;;;5021288;28;20235;-65
2023/11/15 02:22:35;;;;;;;5.63;1.43;;;;;;;;;;5021372;28;20232;-64
2023/11/15 02:25:05;;;;;;;5.70;1.40;;;;;;;;;;5021319;28;20200;-65
2023/11/15 02:27:33;;;;;;;3.80;1.33;;;;;;;;;;5020781;28;20240;-65
2023/11/15 02:30:02;;;;;;;1.60;1.30;;;;;;;;;;5020759;28;20203;-65
2023/11/15 02:32:30;;;;;;;6.67;1.43;;;;;;;;;;5033996;28;20310;-65
2023/11/15 02:34:58;;;;;;;4.47;1.07;;;;;;;;;;5022991;28;20208;-65
2023/11/15 02:37:28;;;;;;;5.13;1.47;;;;;;;;;;5036378;28;20291;-65
2023/11/15 02:39:57;;;;;;;5.47;1.77;;;;;;;;;;5020916;28;20211;-64
2023/11/15 02:42:27;;;;;;;3.17;1.20;;;;;;;;;;5025068;28;20256;-64
2023/11/15 02:44:55;;;;;;;3.77;1.20;;;;;;;;;;5029109;28;20221;-64
2023/11/15 02:47:28;;;;;;;5.43;1.33;;;;;;;;;;5039113;28;20265;-64
2023/11/15 02:49:56;;;;;;;5.50;1.47;;;;;;;;;;5020154;28;20228;-64
2023/11/15 02:52:28;;;;;;;3.83;1.43;;;;;;;;;;5021054;28;20255;-65
2023/11/15 02:54:58;;;;;;;4.67;1.10;;;;;;;;;;5037940;28;20207;-66
2023/11/15 02:57:28;;;;;;;3.07;1.40;;;;;;;;;;5026328;28;20262;-66
2023/11/15 02:59:56;;;;;;;5.50;1.47;;;;;;;;;;5024089;28;20200;-64
2023/11/15 03:02:27;;;;;;;3.60;1.40;;;;;;;;;;5021029;28;20294;-65
2023/11/15 03:04:56;;;;;;;4.83;1.33;;;;;;;;;;5039235;28;20196;-65
2023/11/15 03:07:24;;;;;;;4.13;1.17;;;;;;;;;;5039706;28;20246;-65
2023/11/15 03:09:52;;;;;;;3.27;1.30;;;;;;;;;;5026951;28;20320;-64
2023/11/15 03:12:20;;;;;;;2.40;1.57;;;;;;;;;;5027634;28;20248;-65
2023/11/15 03:14:51;;;;;;;5.33;1.53;;;;;;;;;;5036975;28;20207;-65
2023/11/15 03:17:21;;;;;;;5.80;1.70;;;;;;;;;;5035176;28;20243;-65
2023/11/15 03:19:49;;;;;;;5.87;1.60;;;;;;;;;;5026786;28;20570;-66
2023/11/15 03:22:18;;;;;;;2.83;1.43;;;;;;;;;;5039446;28;20350;-66
2023/11/15 03:24:46;;;;;;;7.27;2.07;;;;;;;;;;5025351;28;20203;-66
2023/11/15 03:27:14;;;;;;;3.73;1.20;;;;;;;;;;5020182;28;20208;-65
2023/11/15 03:29:43;;;;;;;1.40;1.17;;;;;;;;;;5032058;28;20234;-65
2023/11/15 03:32:12;;;;;;;6.90;1.67;;;;;;;;;;5040230;28;20629;-65
2023/11/15 03:34:41;;;;;;;3.53;1.73;;;;;;;;;;5025308;28;20291;-65
2023/11/15 03:37:10;;;;;;;3.03;1.50;;;;;;;;;;5019599;28;20244;-66
2023/11/15 03:39:39;;;;;;;3.27;1.20;;;;;;;;;;5019833;28;20208;-65
2023/11/15 03:42:07;;;;;;;4.67;1.90;;;;;;;;;;5023727;28;20224;-65
2023/11/15 03:44:35;;;;;;;6.07;1.43;;;;;;;;;;5027308;28;20287;-65
2023/11/15 03:47:04;;;;;;;4.53;1.20;;;;;;;;;;5038150;28;20223;-64
2023/11/15 03:49:34;;;;;;;2.83;1.40;;;;;;;;;;5038522;28;20220;-65
2023/11/15 03:52:02;;;;;;;7.30;1.47;;;;;;;;;;5039869;28;20310;-64
2023/11/15 03:54:32;;;;;;;3.83;1.53;;;;;;;;;;5022074;28;20209;-65
2023/11/15 03:57:02;;;;;;;2.07;1.40;;;;;;;;;;5029172;28;20208;-65
2023/11/15 03:59:30;;;;;;;4.47;1.60;;;;;;;;;;5024575;28;20192;-65
2023/11/15 04:01:59;;;;;;;3.50;1.33;;;;;;;;;;5038598;28;20230;-65
2023/11/15 04:04:27;;;;;;;2.53;1.67;;;;;;;;;;5038018;28;20207;-65
2023/11/15 04:06:57;;;;;;;4.77;1.93;;;;;;;;;;5039344;28;20208;-64
2023/11/15 04:09:25;;;;;;;4.00;1.27;;;;;;;;;;5030664;28;20220;-65
2023/11/15 04:11:54;;;;;;;3.37;1.37;;;;;;;;;;5019603;28;20232;-64
2023/11/15 04:14:24;;;;;;;5.90;1.93;;;;;;;;;;5037864;28;20205;-65
2023/11/15 04:16:53;;;;;;;5.00;1.87;;;;;;;;;;5021956;28;20215;-65
2023/11/15 04:19:22;;;;;;;5.80;1.83;;;;;;;;;;5019365;28;20200;-65
2023/11/15 04:21:50;;;;;;;6.63;1.67;;;;;;;;;;5019162;28;20730;-65
2023/11/15 04:24:38;;;;;;;3.77;1.80;;;;;;;;;;5019373;28;20287;-65
2023/11/15 04:27:07;;;;;;;4.23;1.47;;;;;;;;;;5019164;28;20667;-66
2023/11/15 04:29:37;;;;;;;5.53;1.73;;;;;;;;;;5032551;28;20230;-66
2023/11/15 04:32:06;;;;;;;3.43;1.73;;;;;;;;;;5037824;28;20251;-66
2023/11/15 04:34:34;;;;;;;4.67;1.67;;;;;;;;;;5037650;28;20242;-65
2023/11/15 04:37:04;;;;;;;3.80;2.30;;;;;;;;;;5026798;28;20236;-65
2023/11/15 04:39:34;;;;;;;3.80;2.17;;;;;;;;;;5021173;28;20218;-65
2023/11/15 04:42:04;;;;;;;6.17;1.40;;;;;;;;;;5025314;28;20239;-66
2023/11/15 04:44:35;;;;;;;6.33;1.90;;;;;;;;;;5025281;28;20196;-65
2023/11/15 04:47:05;;;;;;;7.33;1.80;;;;;;;;;;5028582;28;20215;-65
2023/11/15 04:49:37;;;;;;;4.87;2.13;;;;;;;;;;5023982;28;20306;-64
2023/11/15 04:52:16;;;;;;;3.33;2.03;;;;;;;;;;5149208;27;20601;-66
2023/11/15 04:54:44;;;;;;;5.87;2.37;;;;;;;;;;5139838;27;20207;-66
2023/11/15 04:57:13;;;;;;;5.00;2.10;;;;;;;;;;5143077;27;20195;-66
2023/11/15 04:59:41;;;;;;;8.87;2.10;;;;;;;;;;5138447;27;20277;-66
2023/11/15 05:02:10;;;;;;;6.60;2.10;;;;;;;;;;5143725;27;20273;-66
2023/11/15 05:04:39;;;;;;;5.03;1.67;;;;;;;;;;5139442;27;20742;-66
2023/11/15 05:07:07;;;;;;;8.00;1.90;;;;;;;;;;5146552;27;20572;-66
2023/11/15 05:09:37;;;;;;;5.90;1.57;;;;;;;;;;5141174;27;20200;-66
2023/11/15 05:12:07;;;;;;;4.60;1.93;;;;;;;;;;5138674;27;20236;-66
2023/11/15 05:14:36;;;;;;;5.63;1.80;;;;;;;;;;5138649;27;20261;-66
2023/11/15 05:17:07;;;;;;;3.03;1.70;;;;;;;;;;5138561;27;20257;-66
2023/11/15 05:19:36;;;;;;;2.40;1.90;;;;;;;;;;5143491;27;20650;-66
2023/11/15 05:22:05;;;;;;;3.70;1.70;;;;;;;;;;5139953;27;20221;-67
2023/11/15 05:24:33;;;;;;;6.20;2.30;;;;;;;;;;5128459;28;20200;-65
2023/11/15 05:27:04;;;;;;;5.43;1.93;;;;;;;;;;5135784;27;20212;-65
2023/11/15 05:29:33;;;;;;;6.03;1.90;;;;;;;;;;5124372;27;20212;-65
2023/11/15 05:32:02;;;;;;;2.27;1.43;;;;;;;;;;5115092;28;20228;-65
2023/11/15 05:34:31;;;;;;;5.03;2.00;;;;;;;;;;5114471;28;20194;-65
2023/11/15 05:36:59;;;;;;;3.83;1.50;;;;;;;;;;5114822;28;20204;-65
2023/11/15 05:39:28;;;;;;;9.37;2.20;;;;;;;;;;5127247;28;20284;-65
2023/11/15 05:41:56;;;;;;;6.10;2.43;;;;;;;;;;5120095;27;20581;-65
2023/11/15 05:44:26;;;;;;;5.27;2.10;;;;;;;;;;5114545;28;20205;-66
2023/11/15 05:46:54;;;;;;;6.40;2.10;;;;;;;;;;5134355;27;20559;-67
2023/11/15 05:49:23;;;;;;;5.60;2.13;;;;;;;;;;5120243;27;20201;-68
2023/11/15 05:52:47;;;;;;;;;;;;;;;;;;;;;
2023/11/15 05:55:39;;;;;;;4.47;1.93;;;;;;;;;;5107568;28;20197;-66
2023/11/15 05:58:12;;;;;;;5.47;1.97;;;;;;;;;;5125352;27;20196;-67
2023/11/15 06:00:43;;;;;;;5.37;2.60;;;;;;;;;;5117625;27;20211;-68
2023/11/15 06:03:13;;;;;;;5.87;3.00;;;;;;;;;;5103529;27;20525;-67
2023/11/15 06:05:43;;;;;;;4.83;2.50;;;;;;;;;;5097854;27;20197;-68
2023/11/15 06:08:12;;;;;;;5.90;2.50;;;;;;;;;;5104570;27;20267;-69
2023/11/15 06:10:40;;;;;;;7.20;2.57;;;;;;;;;;5106657;27;20288;-67
2023/11/15 06:13:09;;;;;;;6.07;2.13;;;;;;;;;;5100288;28;20304;-68
2023/11/15 06:15:37;;;;;;;5.27;2.10;;;;;;;;;;5103296;28;20209;-69
2023/11/15 06:18:07;;;;;;;6.70;1.83;;;;;;;;;;5107318;27;20222;-67
2023/11/15 06:20:36;;;;;;;3.70;2.30;;;;;;;;;;5129452;27;20226;-67
2023/11/15 06:23:04;;;;;;;8.63;2.37;;;;;;;;;;5126541;27;20228;-68
2023/11/15 06:25:34;;;;;;;6.07;2.27;;;;;;;;;;5123614;27;20229;-68
2023/11/15 06:28:04;;;;;;;9.57;2.70;;;;;;;;;;5102253;28;20243;-69
2023/11/15 06:30:34;;;;;;;5.80;1.97;;;;;;;;;;5099383;28;20211;-68
2023/11/15 06:33:02;;;;;;;3.17;1.73;;;;;;;;;;5099527;28;20220;-68
2023/11/15 06:35:32;;;;;;;7.70;2.10;;;;;;;;;;5099784;28;20212;-66
2023/11/15 06:38:01;;;;;;;5.30;2.23;;;;;;;;;;5099682;28;20240;-66
2023/11/15 06:40:29;;;;;;;5.70;2.67;;;;;;;;;;5100211;28;20202;-66
2023/11/15 06:42:57;;;;;;;10.73;2.60;;;;;;;;;;5103446;28;20671;-66
2023/11/15 06:45:26;;;;;;;10.83;2.83;;;;;;;;;;5114536;28;20276;-67
2023/11/15 06:47:54;;;;;;;6.07;2.90;;;;;;;;;;5114359;28;20192;-67
2023/11/15 06:50:23;;;;;;;12.17;2.87;;;;;;;;;;5118878;28;20262;-67
2023/11/15 06:52:53;;;;;;;7.70;2.70;;;;;;;;;;5102821;28;20293;-66
2023/11/15 06:55:22;;;;;;;10.80;4.57;;;;;;;;;;5100363;28;20664;-67
2023/11/15 06:57:50;;;;;;;8.07;2.70;;;;;;;;;;5098768;28;20736;-67
2023/11/15 07:00:19;;;;;;;6.70;2.40;;;;;;;;;;5103441;28;20212;-67
2023/11/15 07:02:47;;;;;;;9.37;3.23;;;;;;;;;;5101820;28;20589;-66
2023/11/15 07:05:16;;;;;;;9.50;3.20;;;;;;;;;;5113706;28;20225;-67
2023/11/15 07:07:44;;;;;;;6.23;2.93;;;;;;;;;;5099343;28;20201;-66
2023/11/15 07:10:15;;;;;;;11.27;3.20;;;;;;;;;;5119952;28;20209;-66
2023/11/15 07:12:43;;;;;;;8.67;2.80;;;;;;;;;;5119886;28;20293;-66
2023/11/15 07:15:16;;;;;;;3.37;2.97;;;;;;;;;;5116808;28;20209;-66
2023/11/15 07:17:44;;;;;;;5.80;2.57;;;;;;;;;;5098755;28;20726;-67
2023/11/15 07:20:14;;;;;;;8.00;3.10;;;;;;;;;;5105231;28;20577;-66
2023/11/15 07:22:42;;;;;;;5.97;2.80;;;;;;;;;;5108038;28;20226;-67
2023/11/15 07:25:12;;;;;;;4.37;2.63;;;;;;;;;;5111874;28;20727;-67
2023/11/15 07:27:42;;;;;;;6.97;3.43;;;;;;;;;;5113718;28;20321;-66
2023/11/15 07:30:12;;;;;;;8.73;3.50;;;;;;;;;;5099106;27;20347;-66
2023/11/15 07:32:40;;;;;;;9.10;4.17;;;;;;;;;;5098501;28;20225;-66
2023/11/15 07:35:10;;;;;;;12.07;4.37;;;;;;;;;;5108092;28;20208;-67
2023/11/15 07:37:40;;;;;;;9.63;3.30;;;;;;;;;;5113374;28;20220;-67
2023/11/15 07:40:12;;;;;;;9.47;3.50;;;;;;;;;;5102690;28;20205;-66
2023/11/15 07:42:42;;;;;;;9.03;3.37;;;;;;;;;;5103367;28;20300;-66
2023/11/15 07:45:12;;;;;;;9.63;3.93;;;;;;;;;;5114471;28;20205;-67
2023/11/15 07:47:41;;;;;;;10.33;4.30;;;;;;;;;;5102769;28;20288;-67
2023/11/15 07:50:15;;;;;;;11.23;4.07;;;;;;;;;;5099666;28;20237;-66
2023/11/15 07:52:45;;;;;;;12.17;4.07;;;;;;;;;;5118679;28;20240;-66
2023/11/15 07:55:13;;;;;;;13.23;3.87;;;;;;;;;;5098934;28;20205;-66
2023/11/15 07:57:43;;;;;;;8.73;4.40;;;;;;;;;;5114746;28;20266;-65
2023/11/15 08:00:12;;;;;;;14.03;4.40;;;;;;;;;;5103308;28;20201;-65
2023/11/15 08:02:42;;;;;;;11.73;3.83;;;;;;;;;;5111577;28;20229;-65
2023/11/15 08:05:10;;;;;;;7.33;3.73;;;;;;;;;;5100131;27;20267;-65
2023/11/15 08:07:39;;;;;;;11.30;4.20;;;;;;;;;;5111181;28;20283;-65
2023/11/15 08:10:07;;;;;;;12.47;4.10;;;;;;;;;;5103659;28;20205;-65
2023/11/15 08:12:37;;;;;;;8.67;3.80;;;;;;;;;;5097988;28;20320;-65
2023/11/15 08:15:11;;;;;;;13.97;4.37;;;;;;;;;;5106960;28;20289;-65
2023/11/15 08:17:40;;;;;;;10.67;4.57;;;;;;;;;;5098618;28;20210;-65
2023/11/15 08:20:10;;;;;;;10.43;4.20;;;;;;;;;;5098286;28;20241;-64
2023/11/15 08:22:39;;;;;;;9.13;3.70;;;;;;;;;;5098117;28;20228;-64
2023/11/15 08:25:09;;;;;;;15.67;7.40;;;;;;;;;;5097730;28;20208;-65
2023/11/15 08:27:38;;;;;;;8.53;4.10;;;;;;;;;;5098837;28;20198;-66
2023/11/15 08:30:12;;;;;;;7.37;3.50;;;;;;;;;;5109395;27;20251;-67
2023/11/15 08:32:41;;;;;;;7.40;3.23;;;;;;;;;;5097627;28;20233;-66
2023/11/15 08:35:10;;;;;;;8.43;3.67;;;;;;;;;;5106454;28;20202;-66
2023/11/15 08:37:39;;;;;;;8.97;3.27;;;;;;;;;;5115546;28;20228;-65
2023/11/15 08:40:10;;;;;;;7.37;3.70;;;;;;;;;;5099439;28;20197;-64
2023/11/15 08:42:55;;;;;;;12.67;3.50;;;;;;;;;;5112386;28;20221;-65
2023/11/15 08:45:25;;;;;;;11.03;3.77;;;;;;;;;;5113639;28;20288;-65
2023/11/15 08:47:56;;;;;;;9.17;3.17;;;;;;;;;;5097144;28;20543;-64
2023/11/15 08:50:27;;;;;;;10.87;3.60;;;;;;;;;;5096955;28;20241;-66
2023/11/15 08:52:56;;;;;;;8.33;3.47;;;;;;;;;;5104680;28;20251;-66
2023/11/15 08:55:24;;;;;;;5.17;2.93;;;;;;;;;;5097675;28;20205;-65
2023/11/15 08:57:53;;;;;;;5.40;3.23;;;;;;;;;;5101206;28;20228;-65
2023/11/15 09:00:21;;;;;;;7.40;2.83;;;;;;;;;;5097492;28;20213;-67
2023/11/15 09:02:51;;;;;;;10.93;4.10;;;;;;;;;;5096848;28;20221;-67
2023/11/15 09:05:22;;;;;;;8.27;3.70;;;;;;;;;;5096760;28;20205;-66
2023/11/15 09:07:51;;;;;;;10.03;3.00;;;;;;;;;;5097795;28;20194;-65
2023/11/15 09:10:22;;;;;;;13.10;4.33;;;;;;;;;;5111176;28;20265;-65
2023/11/15 09:12:52;;;;;;;9.73;3.03;;;;;;;;;;5097373;28;20236;-66
2023/11/15 09:15:21;;;;;;;15.20;3.90;;;;;;;;;;5097745;28;20209;-67
2023/11/15 09:17:50;;;;;;;10.47;3.33;;;;;;;;;;5097662;28;20209;-66
2023/11/15 09:20:25;;;;;;;9.10;3.33;;;;;;;;;;5100131;28;20221;-66
2023/11/15 09:22:55;;;;;;;10.77;3.30;;;;;;;;;;5110728;28;20221;-66
2023/11/15 09:25:23;;;;;;;8.70;3.00;;;;;;;;;;5107469;28;20197;-67
2023/11/15 09:27:53;;;;;;;10.57;2.47;;;;;;;;;;5117639;28;20684;-67
2023/11/15 09:30:21;;;;;;;15.47;2.53;;;;;;;;;;5115273;28;20205;-67
2023/11/15 09:32:50;;;;;;;10.77;2.50;;;;;;;;;;5116436;28;20221;-66
2023/11/15 09:35:21;;;;;;;9.23;2.47;;;;;;;;;;5104842;28;20605;-67
2023/11/15 09:37:50;;;;;;;11.53;2.67;;;;;;;;;;5115108;28;20655;-65
2023/11/15 09:40:21;;;;;;;11.53;2.73;;;;;;;;;;5119409;28;20197;-65
2023/11/15 09:42:52;;;;;;;5.80;2.43;;;;;;;;;;5114856;28;20218;-65
2023/11/15 09:45:23;;;;;;;5.23;1.70;;;;;;;;;;5100399;28;20237;-65
2023/11/15 09:47:52;;;;;;;7.73;2.40;;;;;;;;;;5100868;28;20201;-65
2023/11/15 09:50:23;;;;;;;6.77;1.80;;;;;;;;;;5120882;28;20258;-65
2023/11/15 09:52:55;;;;;;;7.63;1.70;;;;;;;;;;5120076;28;20224;-67
2023/11/15 09:55:24;;;;;;;13.23;2.13;;;;;;;;;;5120428;28;20201;-67
2023/11/15 09:57:52;;;;;;;8.10;1.80;;;;;;;;;;5108461;28;20205;-65
2023/11/15 10:00:21;;;;;;;11.10;2.43;;;;;;;;;;5119628;28;20205;-64
2023/11/15 10:02:51;;;;;;;7.13;2.67;;;;;;;;;;5120049;28;20248;-66
2023/11/15 10:05:23;;;;;;;6.87;2.37;;;;;;;;;;5100923;28;20676;-65
2023/11/15 10:07:53;;;;;;;9.33;2.17;;;;;;;;;;5102385;28;20193;-65
2023/11/15 10:10:22;;;;;;;8.53;2.90;;;;;;;;;;5100431;28;20205;-64
2023/11/15 10:12:51;;;;;;;4.13;1.67;;;;;;;;;;5102454;28;20304;-65
2023/11/15 10:15:32;;;;;;;5.87;1.83;;;;;;;;;;5121143;28;20205;-65
2023/11/15 10:18:03;;;;;;;4.37;1.63;;;;;;;;;;5128032;27;20204;-65
2023/11/15 10:20:33;;;;;;;10.60;1.80;;;;;;;;;;5100856;28;20206;-66
2023/11/15 10:23:02;;;;;;;6.97;1.40;;;;;;;;;;5100416;28;20229;-65
2023/11/15 10:25:31;;;;;;;11.30;2.03;;;;;;;;;;5100208;28;20727;-65
2023/11/15 10:28:03;;;;;;;4.03;2.07;;;;;;;;;;5098629;28;20205;-65
2023/11/15 10:30:32;;;;;;;7.87;2.00;;;;;;;;;;5110475;28;20608;-65
2023/11/15 10:33:05;;;;;;;13.03;2.47;;;;;;;;;;5119200;28;20212;-65
2023/11/15 10:35:35;;;;;;;10.40;2.07;;;;;;;;;;5119022;28;20643;-65
2023/11/15 10:38:04;;;;;;;9.20;2.37;;;;;;;;;;5119384;28;20299;-64
2023/11/15 10:40:32;;;;;;;5.27;1.90;;;;;;;;;;5119072;28;20735;-65
2023/11/15 10:43:02;;;;;;;7.77;2.23;;;;;;;;;;5113136;28;20217;-64
2023/11/15 10:45:31;;;;;;;10.03;1.60;;;;;;;;;;5100005;28;20277;-65
2023/11/15 10:48:04;;;;;;;5.13;1.57;;;;;;;;;;5099854;28;20255;-65
2023/11/15 10:50:33;;;;;;;6.37;1.77;;;;;;;;;;5118821;28;20272;-65
2023/11/15 10:53:05;;;;;;;7.53;1.50;;;;;;;;;;5118960;28;20221;-65
2023/11/15 10:55:33;;;;;;;6.33;1.40;;;;;;;;;;5107471;28;20233;-64
2023/11/15 10:58:02;;;;;;;3.33;2.00;;;;;;;;;;5099775;28;20272;-64
2023/11/15 11:00:31;;;;;;;5.23;1.53;;;;;;;;;;5111701;28;20201;-65
2023/11/15 11:02:59;;;;;;;7.57;1.60;;;;;;;;;;5120251;28;20231;-66
2023/11/15 11:05:35;;;;;;;1.73;1.03;;;;;;;;;;5098585;28;20225;-65
2023/11/15 11:08:10;;;;;;;7.30;3.80;;;;;;;;;;5099157;28;20207;-65
2023/11/15 11:10:41;;;;;;;3.83;1.20;;;;;;;;;;5106502;28;20210;-65
2023/11/15 11:13:18;;;;;;;6.60;1.37;;;;;;;;;;5118683;28;20655;-65
2023/11/15 11:15:47;;;;;;;2.10;1.57;;;;;;;;;;5128812;27;20282;-67
2023/11/15 11:18:17;;;;;;;4.73;1.23;;;;;;;;;;5124311;27;20208;-65
2023/11/15 11:20:56;;;;;;;5.30;1.80;;;;;;;;;;5127095;27;20654;-66
2023/11/15 11:23:26;;;;;;;2.27;1.13;;;;;;;;;;5117798;27;20209;-67
2023/11/15 11:26:15;;;;;;;2.40;0.97;;;;;;;;;;5128597;27;20672;-67
2023/11/15 11:29:03;;;;;;;8.33;1.60;;;;;;;;;;5126711;27;20228;-65
2023/11/15 11:31:31;;;;;;;6.37;1.37;;;;;;;;;;5121284;27;20759;-66
2023/11/15 11:34:08;;;;;;;5.07;1.77;;;;;;;;;;5122792;27;20283;-65
2023/11/15 11:36:46;;;;;;;5.67;1.80;;;;;;;;;;5124286;27;20253;-65
2023/11/15 11:39:16;;;;;;;2.90;1.30;;;;;;;;;;5099277;28;20288;-65
2023/11/15 11:41:47;;;;;;;5.80;1.40;;;;;;;;;;5106967;28;20217;-66
2023/11/15 11:44:18;;;;;;;4.93;1.53;;;;;;;;;;5100577;27;20197;-67
2023/11/15 11:47:02;;;;;;;5.20;1.40;;;;;;;;;;5093044;28;20200;-66
2023/11/15 11:49:46;;;;;;;4.13;1.50;;;;;;;;;;5093022;28;20309;-65
2023/11/15 11:52:16;;;;;;;3.70;1.33;;;;;;;;;;5092797;28;20222;-64
2023/11/15 11:54:51;;;;;;;3.60;1.30;;;;;;;;;;5099638;27;20233;-68
2023/11/15 11:57:21;;;;;;;3.93;1.40;;;;;;;;;;5100610;27;20219;-67
2023/11/15 11:59:59;;;;;;;5.83;1.37;;;;;;;;;;5103047;27;20712;-66
2023/11/15 12:02:34;;;;;;;4.07;1.50;;;;;;;;;;5111115;27;20223;-67
2023/11/15 12:05:02;;;;;;;5.97;1.40;;;;;;;;;;5120891;27;20341;-65
2023/11/15 12:07:54;;;;;;;6.87;1.80;;;;;;;;;;5115144;27;20652;-67
2023/11/15 12:10:27;;;;;;;5.17;1.13;;;;;;;;;;5101338;28;20198;-67
2023/11/15 12:12:56;;;;;;;6.53;1.20;;;;;;;;;;5110156;28;20281;-68
2023/11/15 12:15:24;;;;;;;5.30;1.27;;;;;;;;;;5111353;28;20232;-67
2023/11/15 12:17:53;;;;;;;4.13;1.33;;;;;;;;;;5100007;28;20261;-66
2023/11/15 12:20:31;;;;;;;4.97;1.40;;;;;;;;;;5097691;28;20283;-66
2023/11/15 12:23:05;;;;;;;5.17;1.27;;;;;;;;;;5097503;28;20296;-67
2023/11/15 12:25:43;;;;;;;4.73;1.30;;;;;;;;;;5112335;27;20559;-67
2023/11/15 12:28:12;;;;;;;3.23;1.30;;;;;;;;;;5104727;27;20208;-67
2023/11/15 12:30:42;;;;;;;5.27;1.53;;;;;;;;;;5112921;27;20193;-65
2023/11/15 12:33:11;;;;;;;5.27;1.20;;;;;;;;;;5106231;28;20201;-67
2023/11/15 12:35:44;;;;;;;7.33;1.20;;;;;;;;;;5097834;28;20233;-66
2023/11/15 12:38:14;;;;;;;3.33;1.30;;;;;;;;;;5104864;28;20193;-67
2023/11/15 12:40:44;;;;;;;5.73;2.10;;;;;;;;;;5096512;28;20205;-64
2023/11/15 12:43:18;;;;;;;7.60;1.60;;;;;;;;;;5101329;28;20204;-64
2023/11/15 12:45:46;;;;;;;5.80;1.60;;;;;;;;;;5097789;28;20709;-66
2023/11/15 12:48:15;;;;;;;5.43;1.33;;;;;;;;;;5097067;28;20388;-65
2023/11/15 12:50:45;;;;;;;5.97;1.33;;;;;;;;;;5117165;28;20319;-64
2023/11/15 12:53:50;;;;;;;5.47;1.60;;;;;;;;;;5101874;28;20214;-64
2023/11/15 12:56:20;;;;;;;6.03;1.50;;;;;;;;;;5097136;28;20227;-65
2023/11/15 12:58:50;;;;;;;1.53;1.00;;;;;;;;;;5101097;28;20200;-65
2023/11/15 13:01:18;;;;;;;4.03;1.33;;;;;;;;;;5096760;28;20284;-65
2023/11/15 13:03:54;;;;;;;4.03;1.13;;;;;;;;;;5116446;28;20197;-64
2023/11/15 13:06:24;;;;;;;4.93;1.00;;;;;;;;;;5104798;28;20659;-64
2023/11/15 13:09:00;;;;;;;6.67;1.60;;;;;;;;;;5105222;28;20279;-64
2023/11/15 13:11:30;;;;;;;5.70;1.27;;;;;;;;;;5117878;28;20688;-65
2023/11/15 13:13:58;;;;;;;2.90;1.27;;;;;;;;;;5120962;28;20231;-65
2023/11/15 13:16:27;;;;;;;4.07;1.20;;;;;;;;;;5114683;28;20223;-64
2023/11/15 13:18:57;;;;;;;5.47;1.07;;;;;;;;;;5120689;28;20200;-64
2023/11/15 13:21:26;;;;;;;7.37;1.17;;;;;;;;;;5110391;28;20212;-66
2023/11/15 13:23:55;;;;;;;3.10;1.00;;;;;;;;;;5120979;28;20197;-66
2023/11/15 13:26:24;;;;;;;4.90;1.40;;;;;;;;;;5117736;28;20197;-66
2023/11/15 13:28:54;;;;;;;4.33;1.67;;;;;;;;;;5104979;28;20232;-66
2023/11/15 13:31:24;;;;;;;7.77;1.20;;;;;;;;;;5099461;28;20227;-65
2023/11/15 13:33:54;;;;;;;5.07;1.20;;;;;;;;;;5107139;28;20197;-64
2023/11/15 13:36:25;;;;;;;4.90;1.10;;;;;;;;;;5101792;28;20221;-65
2023/11/15 13:38:53;;;;;;;2.17;0.90;;;;;;;;;;5106482;28;20204;-64
2023/11/15 13:41:22;;;;;;;7.37;1.30;;;;;;;;;;5121408;28;20312;-64
2023/11/15 13:43:52;;;;;;;3.40;0.90;;;;;;;;;;5104752;28;20240;-65
2023/11/15 13:46:23;;;;;;;4.27;1.00;;;;;;;;;;5120744;28;20201;-64
2023/11/15 13:48:52;;;;;;;3.40;1.03;;;;;;;;;;5120035;27;20204;-64
2023/11/15 13:51:21;;;;;;;3.90;1.30;;;;;;;;;;5121173;28;20294;-64
2023/11/15 13:53:50;;;;;;;4.93;1.33;;;;;;;;;;5113928;28;20250;-65
2023/11/15 13:56:19;;;;;;;2.50;1.00;;;;;;;;;;5110881;28;20230;-66
2023/11/15 13:58:48;;;;;;;3.27;1.10;;;;;;;;;;5117963;28;20235;-66
2023/11/15 14:01:16;;;;;;;4.37;1.13;;;;;;;;;;5104977;28;20683;-66
2023/11/15 14:03:46;;;;;;;2.43;0.90;;;;;;;;;;5115967;28;20215;-66
2023/11/15 14:06:14;;;;;;;4.93;1.27;;;;;;;;;;5107146;28;20198;-66
2023/11/15 14:08:42;;;;;;;1.83;0.83;;;;;;;;;;5103774;28;20600;-65
2023/11/15 14:11:27;;;;;;;3.83;1.00;;;;;;;;;;5108309;28;20221;-66
2023/11/15 14:13:56;;;;;;;5.33;0.93;;;;;;;;;;5116396;28;20194;-65
2023/11/15 14:16:24;;;;;;;4.43;1.30;;;;;;;;;;5111346;28;20317;-64
2023/11/15 14:18:54;;;;;;;2.27;0.80;;;;;;;;;;5100133;28;20293;-64
2023/11/15 14:21:23;;;;;;;6.00;1.77;;;;;;;;;;5100460;28;20225;-66
2023/11/15 14:23:52;;;;;;;3.70;1.50;;;;;;;;;;5116623;28;20212;-64
2023/11/15 14:26:21;;;;;;;2.63;1.33;;;;;;;;;;5113797;28;20193;-65
2023/11/15 14:28:52;;;;;;;3.60;1.00;;;;;;;;;;5119978;27;20205;-64
2023/11/15 14:31:28;;;;;;;4.80;1.40;;;;;;;;;;5125258;27;20223;-65
2023/11/15 14:33:59;;;;;;;3.30;1.27;;;;;;;;;;5123150;27;20659;-66
2023/11/15 14:36:28;;;;;;;4.27;1.30;;;;;;;;;;5126191;27;20213;-66
2023/11/15 14:38:57;;;;;;;8.87;1.63;;;;;;;;;;5123513;27;20197;-64
2023/11/15 14:41:25;;;;;;;3.50;1.20;;;;;;;;;;5125208;27;20215;-66
2023/11/15 14:43:54;;;;;;;9.43;2.10;;;;;;;;;;5124935;27;20197;-67
2023/11/15 14:46:25;;;;;;;3.57;1.00;;;;;;;;;;5126317;27;20275;-67
2023/11/15 14:48:53;;;;;;;6.30;1.20;;;;;;;;;;5125031;27;20199;-66
2023/11/15 14:51:23;;;;;;;6.73;1.07;;;;;;;;;;5129770;27;20315;-67
2023/11/15 14:53:55;;;;;;;6.23;1.37;;;;;;;;;;5118318;27;20223;-67
2023/11/15 14:56:27;;;;;;;4.43;1.50;;;;;;;;;;5105746;27;20691;-67
2023/11/15 14:58:55;;;;;;;5.40;1.37;;;;;;;;;;5111762;28;20224;-66
2023/11/15 15:01:27;;;;;;;7.37;1.40;;;;;;;;;;5099679;28;20601;-66